Time;durP1;ratioP1;P1;durP2;ratioP2;P2;SDS_P1;SDS_P2;PMS_P1;PMS_P2;Temp;Humidity;BMP_temperature;BMP_pressure;BME280_temperature;BME280_humidity;BME280_pressure;Samples;Min_cycle;Max_cycle;Signal;HPM_P1;HPM_P2
2023/07/12 00:01:25;;;;;;;3.05;0.93;;;;;;;15.47;100.00;100236.19;5030586;28;20079;-61
2023/07/12 00:03:50;;;;;;;0.98;0.30;;;;;;;15.42;100.00;100238.75;5027778;28;20215;-60
2023/07/12 00:06:18;;;;;;;2.67;0.95;;;;;;;15.38;100.00;100248.25;5031974;28;20112;-62
2023/07/12 00:08:44;;;;;;;3.90;2.35;;;;;;;15.34;100.00;100257.78;5037947;28;20043;-62
2023/07/12 00:11:19;;;;;;;2.88;1.45;;;;;;;15.35;100.00;100255.91;5032288;28;20026;-61
2023/07/12 00:13:44;;;;;;;2.50;0.28;;;;;;;15.35;100.00;100255.91;5034169;28;20040;-63
2023/07/12 00:16:34;;;;;;;3.42;0.30;;;;;;;15.30;100.00;100261.13;5037311;28;20041;-63
2023/07/12 00:19:00;;;;;;;2.38;0.63;;;;;;;15.29;100.00;100254.16;5033380;28;21225;-62
2023/07/12 00:21:27;;;;;;;3.17;0.40;;;;;;;15.26;100.00;100268.78;5034292;28;20029;-58
2023/07/12 00:23:55;;;;;;;4.88;1.17;;;;;;;15.22;100.00;100256.91;5029819;28;20382;-62
2023/07/12 00:26:22;;;;;;;2.45;0.40;;;;;;;15.15;100.00;100266.84;5034084;28;20159;-63
2023/07/12 00:28:47;;;;;;;8.20;1.77;;;;;;;15.12;100.00;100275.31;5032019;28;20033;-62
2023/07/12 00:31:13;;;;;;;6.20;1.08;;;;;;;15.12;100.00;100278.00;5036789;28;20036;-57
2023/07/12 00:33:38;;;;;;;6.18;1.20;;;;;;;15.15;100.00;100264.19;5039546;28;20029;-60
2023/07/12 00:36:05;;;;;;;2.28;0.63;;;;;;;15.06;100.00;100269.03;5036777;28;20130;-62
2023/07/12 00:38:31;;;;;;;2.97;0.80;;;;;;;15.15;100.00;100274.88;5032224;28;20026;-59
2023/07/12 00:41:18;;;;;;;3.03;0.75;;;;;;;15.10;100.00;100264.06;5030387;28;20174;-61
2023/07/12 00:43:51;;;;;;;10.20;1.48;;;;;;;14.97;100.00;100268.56;5027185;28;20038;-63
2023/07/12 00:46:25;;;;;;;5.57;0.85;;;;;;;14.94;100.00;100274.31;5031834;28;20584;-61
2023/07/12 00:48:50;;;;;;;6.55;1.00;;;;;;;14.93;100.00;100266.53;5029518;28;20498;-62
2023/07/12 00:51:48;;;;;;;3.97;0.80;;;;;;;14.95;100.00;100270.63;5034380;28;20059;-62
2023/07/12 00:54:19;;;;;;;6.47;0.88;;;;;;;14.95;100.00;100267.13;5027572;28;20490;-62
2023/07/12 00:56:44;;;;;;;2.50;1.13;;;;;;;14.87;100.00;100268.25;5033513;28;20102;-60
2023/07/12 00:59:21;;;;;;;6.63;1.50;;;;;;;14.84;100.00;100266.00;5035984;28;20040;-63
2023/07/12 01:01:50;;;;;;;3.05;0.57;;;;;;;14.77;100.00;100267.97;5037846;28;20101;-59
2023/07/12 01:04:22;;;;;;;3.75;0.85;;;;;;;14.71;100.00;100275.00;5037963;28;20042;-58
2023/07/12 01:06:51;;;;;;;3.85;1.08;;;;;;;14.71;100.00;100272.31;5038298;28;20040;-59
2023/07/12 01:09:17;;;;;;;5.57;1.10;;;;;;;14.74;100.00;100276.41;5036672;28;20045;-60
2023/07/12 01:11:45;;;;;;;5.47;0.35;;;;;;;14.81;100.00;100282.47;5032784;28;20032;-62
2023/07/12 01:14:15;;;;;;;3.92;1.20;;;;;;;14.79;100.00;100285.41;5035840;28;20033;-61
2023/07/12 01:16:44;;;;;;;3.35;0.93;;;;;;;14.65;100.00;100286.56;5038894;28;20090;-58
2023/07/12 01:19:10;;;;;;;2.38;0.45;;;;;;;14.64;100.00;100289.44;5040719;28;20116;-61
2023/07/12 01:21:40;;;;;;;4.47;0.73;;;;;;;14.66;100.00;100290.84;5035362;28;20332;-63
2023/07/12 01:24:06;;;;;;;2.22;1.15;;;;;;;14.75;100.00;100291.41;5031138;28;20036;-61
2023/07/12 01:26:35;;;;;;;3.28;1.05;;;;;;;14.71;100.00;100295.53;5036163;28;20101;-58
2023/07/12 01:29:03;;;;;;;2.95;1.10;;;;;;;14.69;100.00;100297.59;5035451;28;20103;-59
2023/07/12 01:31:30;;;;;;;3.60;1.00;;;;;;;14.72;100.00;100291.84;5038198;28;20039;-61
2023/07/12 01:33:56;;;;;;;2.15;0.70;;;;;;;14.76;100.00;100298.34;5029868;28;20034;-60
2023/07/12 01:36:23;;;;;;;6.15;1.27;;;;;;;14.75;100.00;100300.22;5033727;28;20044;-60
2023/07/12 01:38:56;;;;;;;6.55;1.70;;;;;;;14.82;100.00;100292.94;5038216;28;20061;-60
2023/07/12 01:41:23;;;;;;;8.35;1.27;;;;;;;14.87;100.00;100294.13;5036685;28;20041;-61
2023/07/12 01:43:48;;;;;;;2.53;0.75;;;;;;;14.92;100.00;100303.13;5036550;28;20037;-62
2023/07/12 01:46:14;;;;;;;4.25;1.33;;;;;;;15.00;100.00;100304.66;5025262;28;20438;-59
2023/07/12 01:48:39;;;;;;;6.03;1.80;;;;;;;15.01;100.00;100300.94;5032473;28;20112;-52
2023/07/12 01:51:05;;;;;;;4.65;1.08;;;;;;;14.95;100.00;100297.31;5029386;28;20060;-57
2023/07/12 01:53:33;;;;;;;3.38;1.15;;;;;;;14.89;100.00;100292.03;5040641;28;20383;-60
2023/07/12 01:55:59;;;;;;;4.57;1.30;;;;;;;14.81;100.00;100290.50;5028478;28;20358;-56
2023/07/12 01:58:25;;;;;;;1.98;0.38;;;;;;;14.97;100.00;100284.56;5033661;28;20045;-61
2023/07/12 02:00:50;;;;;;;7.60;0.80;;;;;;;14.98;100.00;100278.19;5032964;28;20091;-60
2023/07/12 02:03:16;;;;;;;5.40;1.42;;;;;;;14.99;100.00;100273.66;5034269;28;20041;-58
2023/07/12 02:05:42;;;;;;;5.30;0.68;;;;;;;15.08;100.00;100271.50;5039833;28;20115;-58
2023/07/12 02:08:09;;;;;;;5.05;0.68;;;;;;;15.04;100.00;100269.25;5033881;28;20034;-61
2023/07/12 02:10:35;;;;;;;2.10;0.98;;;;;;;15.11;100.00;100274.53;5033090;28;20493;-61
2023/07/12 02:13:00;;;;;;;5.03;0.85;;;;;;;15.08;100.00;100284.84;5034776;28;20064;-61
2023/07/12 02:15:26;;;;;;;2.33;0.90;;;;;;;15.09;100.00;100281.13;5035998;28;20371;-61
2023/07/12 02:17:52;;;;;;;4.13;0.60;;;;;;;15.10;100.00;100296.09;5034415;28;20402;-61
2023/07/12 02:20:17;;;;;;;4.30;0.70;;;;;;;15.13;100.00;100293.00;5034414;28;20131;-61
2023/07/12 02:22:44;;;;;;;2.30;1.00;;;;;;;15.13;100.00;100288.47;5033361;28;20461;-62
2023/07/12 02:25:11;;;;;;;4.28;0.88;;;;;;;15.18;100.00;100295.78;5032012;28;20528;-57
2023/07/12 02:27:37;;;;;;;3.47;1.60;;;;;;;15.27;100.00;100286.44;5035420;28;20119;-62
2023/07/12 02:30:06;;;;;;;2.38;1.45;;;;;;;15.26;100.00;100276.78;5035758;28;21526;-62
2023/07/12 02:32:31;;;;;;;4.00;1.33;;;;;;;15.21;100.00;100280.13;5032912;28;20029;-59
2023/07/12 02:34:56;;;;;;;0.60;0.45;;;;;;;15.07;100.00;100285.88;5030554;28;20063;-60
2023/07/12 02:37:22;;;;;;;4.32;0.85;;;;;;;14.74;100.00;100293.25;5039119;28;20029;-60
2023/07/12 02:39:47;;;;;;;1.98;0.68;;;;;;;14.60;100.00;100275.75;5039394;28;20052;-61
2023/07/12 02:42:12;;;;;;;4.05;1.05;;;;;;;14.54;100.00;100274.78;5035269;28;20036;-61
2023/07/12 02:44:41;;;;;;;5.22;0.45;;;;;;;14.47;100.00;100282.00;5031729;28;20487;-62
2023/07/12 02:47:09;;;;;;;1.55;0.60;;;;;;;14.44;100.00;100287.78;5034491;28;20034;-62
2023/07/12 02:49:35;;;;;;;1.85;0.75;;;;;;;14.43;100.00;100290.66;5037794;28;20033;-62
2023/07/12 02:52:01;;;;;;;1.02;0.52;;;;;;;14.49;100.00;100287.94;5034109;28;20028;-62
2023/07/12 02:54:26;;;;;;;6.72;0.98;;;;;;;14.56;100.00;100288.72;5033622;28;20366;-65
2023/07/12 02:56:51;;;;;;;4.95;0.88;;;;;;;14.59;100.00;100293.63;5035676;28;20090;-62
2023/07/12 02:59:17;;;;;;;1.75;0.68;;;;;;;14.58;100.00;100291.97;5037873;28;20106;-63
2023/07/12 03:01:46;;;;;;;3.28;1.30;;;;;;;14.48;100.00;100286.31;5039154;28;20487;-62
2023/07/12 03:04:11;;;;;;;7.13;1.48;;;;;;;14.42;100.00;100289.06;5036462;28;20048;-62
2023/07/12 03:06:36;;;;;;;3.03;1.08;;;;;;;14.33;100.00;100276.00;5040662;28;20029;-62
2023/07/12 03:09:04;;;;;;;0.98;0.73;;;;;;;14.34;100.00;100282.16;5033028;28;21976;-62
2023/07/12 03:11:29;;;;;;;3.78;0.90;;;;;;;14.52;100.00;100279.50;5032928;28;20040;-61
2023/07/12 03:13:54;;;;;;;4.65;1.40;;;;;;;14.43;100.00;100277.34;5037105;28;20541;-62
2023/07/12 03:16:20;;;;;;;4.10;1.05;;;;;;;14.35;100.00;100281.09;5033792;28;20542;-62
2023/07/12 03:18:45;;;;;;;1.95;1.05;;;;;;;14.49;100.00;100273.81;5033425;28;20037;-63
2023/07/12 03:21:10;;;;;;;1.55;0.82;;;;;;;14.52;100.00;100276.81;5039440;28;20026;-62
2023/07/12 03:23:36;;;;;;;6.80;1.77;;;;;;;14.38;100.00;100270.03;5034971;28;20040;-62
2023/07/12 03:26:01;;;;;;;0.90;0.60;;;;;;;14.36;100.00;100282.75;5039462;28;20032;-60
2023/07/12 03:28:27;;;;;;;6.93;2.25;;;;;;;14.19;100.00;100271.81;5037650;28;20489;-63
2023/07/12 03:31:00;;;;;;;2.85;2.00;;;;;;;14.09;100.00;100280.31;5036227;28;20033;-62
2023/07/12 03:33:26;;;;;;;1.67;1.27;;;;;;;14.10;100.00;100287.31;5039173;28;20488;-62
2023/07/12 03:35:52;;;;;;;1.33;0.63;;;;;;;14.03;100.00;100281.19;5036282;28;20021;-62
2023/07/12 03:38:17;;;;;;;5.47;0.98;;;;;;;13.95;100.00;100281.47;5031938;28;20389;-61
2023/07/12 03:40:44;;;;;;;3.85;1.17;;;;;;;13.93;100.00;100288.88;5037882;28;20506;-60
2023/07/12 03:43:10;;;;;;;7.65;1.20;;;;;;;13.90;100.00;100292.78;5038124;28;20448;-61
2023/07/12 03:45:35;;;;;;;3.60;0.95;;;;;;;13.88;100.00;100299.38;5037348;28;20526;-60
2023/07/12 03:48:00;;;;;;;1.88;1.50;;;;;;;13.87;100.00;100306.56;5040836;28;20028;-59
2023/07/12 03:50:26;;;;;;;6.60;1.38;;;;;;;13.83;100.00;100313.34;5034519;28;20470;-52
2023/07/12 03:52:51;;;;;;;5.90;0.88;;;;;;;13.92;100.00;100313.91;5039815;28;20088;-56
2023/07/12 03:55:16;;;;;;;1.23;1.00;;;;;;;14.00;100.00;100310.97;5032035;28;20102;-60
2023/07/12 03:57:42;;;;;;;5.63;2.08;;;;;;;13.96;100.00;100315.94;5036963;28;20039;-55
2023/07/12 04:00:09;;;;;;;14.93;1.73;;;;;;;13.96;100.00;100315.09;5035171;28;20033;-53
2023/07/12 04:02:34;;;;;;;4.40;1.23;;;;;;;14.21;100.00;100330.28;5038769;28;20405;-61
2023/07/12 04:05:00;;;;;;;2.13;0.98;;;;;;;14.20;100.00;100324.13;5036497;28;20033;-52
2023/07/12 04:07:25;;;;;;;2.75;1.67;;;;;;;14.28;100.00;100329.19;5031302;28;20035;-61
2023/07/12 04:09:50;;;;;;;1.50;1.13;;;;;;;14.39;100.00;100324.97;5034321;28;20533;-59
2023/07/12 04:12:16;;;;;;;9.88;2.63;;;;;;;14.39;100.00;100328.47;5033041;28;20037;-57
2023/07/12 04:14:41;;;;;;;5.07;1.25;;;;;;;14.31;100.00;100322.59;5039866;28;20108;-53
2023/07/12 04:17:06;;;;;;;6.50;1.98;;;;;;;14.29;100.00;100314.00;5035669;28;20086;-60
2023/07/12 04:19:32;;;;;;;0.98;0.57;;;;;;;14.29;100.00;100314.00;5028766;28;20028;-61
2023/07/12 04:21:57;;;;;;;2.85;1.35;;;;;;;14.28;100.00;100312.38;5036284;28;20059;-60
2023/07/12 04:24:22;;;;;;;3.47;0.90;;;;;;;14.28;100.00;100317.72;5030501;28;20029;-61
2023/07/12 04:26:48;;;;;;;1.95;1.73;;;;;;;14.35;100.00;100324.63;5039610;28;20177;-62
2023/07/12 04:29:14;;;;;;;8.30;0.70;;;;;;;14.45;100.00;100332.09;5035806;28;20045;-61
2023/07/12 04:31:40;;;;;;;4.05;1.42;;;;;;;14.55;100.00;100336.97;5033227;28;20385;-61
2023/07/12 04:34:05;;;;;;;5.00;1.25;;;;;;;14.69;100.00;100334.97;5034088;28;20037;-60
2023/07/12 04:36:31;;;;;;;1.33;1.02;;;;;;;14.77;100.00;100340.03;5043784;28;20557;-57
2023/07/12 04:38:56;;;;;;;3.40;1.13;;;;;;;14.86;100.00;100338.69;5039243;28;20032;-60
2023/07/12 04:41:22;;;;;;;4.57;1.23;;;;;;;14.90;100.00;100339.06;5039427;28;20113;-60
2023/07/12 04:43:48;;;;;;;8.98;1.10;;;;;;;14.95;100.00;100341.88;5038419;28;20071;-60
2023/07/12 04:46:13;;;;;;;8.80;1.27;;;;;;;15.01;100.00;100344.47;5034258;28;20108;-56
2023/07/12 04:48:39;;;;;;;3.15;0.80;;;;;;;15.13;100.00;100354.41;5039059;28;20114;-60
2023/07/12 04:51:04;;;;;;;3.58;1.10;;;;;;;15.23;100.00;100347.50;5028363;28;20029;-57
2023/07/12 04:53:30;;;;;;;5.72;1.33;;;;;;;15.26;100.00;100351.56;5037776;28;20041;-60
2023/07/12 04:55:56;;;;;;;3.78;1.23;;;;;;;15.28;100.00;100344.13;5029792;28;20387;-56
2023/07/12 04:58:22;;;;;;;8.00;2.15;;;;;;;15.29;100.00;100351.13;5037819;28;20082;-59
2023/07/12 05:00:47;;;;;;;9.23;0.98;;;;;;;15.04;100.00;100365.38;5037895;28;20100;-57
2023/07/12 05:03:15;;;;;;;6.03;1.25;;;;;;;14.98;100.00;100366.28;5039517;28;20296;-59
2023/07/12 05:05:41;;;;;;;3.55;1.52;;;;;;;15.00;100.00;100374.06;5033169;28;20490;-60
2023/07/12 05:08:06;;;;;;;6.82;0.80;;;;;;;14.97;100.00;100378.00;5036105;28;20037;-62
2023/07/12 05:10:33;;;;;;;10.57;1.88;;;;;;;14.96;100.00;100389.69;5040209;28;20810;-56
2023/07/12 05:12:59;;;;;;;5.57;2.20;;;;;;;14.98;100.00;100387.63;5027856;28;20156;-62
2023/07/12 05:15:25;;;;;;;6.25;1.30;;;;;;;15.04;100.00;100401.94;5030622;28;20035;-61
2023/07/12 05:17:50;;;;;;;9.55;1.65;;;;;;;15.12;100.00;100395.50;5030177;28;20470;-63
2023/07/12 05:20:16;;;;;;;3.40;0.57;;;;;;;15.15;100.00;100405.72;5036509;28;20379;-61
2023/07/12 05:22:43;;;;;;;2.60;0.40;;;;;;;15.13;100.00;100400.63;5030951;28;20029;-61
2023/07/12 05:25:09;;;;;;;5.05;0.80;;;;;;;15.15;100.00;100397.72;5031965;28;20029;-61
2023/07/12 05:27:34;;;;;;;3.20;2.50;;;;;;;15.17;100.00;100400.97;5034355;28;20029;-62
2023/07/12 05:30:00;;;;;;;3.72;0.95;;;;;;;15.22;100.00;100414.47;5031608;28;20026;-62
2023/07/12 05:32:26;;;;;;;0.85;0.68;;;;;;;15.30;100.00;100408.84;5034657;28;20095;-62
2023/07/12 05:34:51;;;;;;;1.60;0.40;;;;;;;15.27;100.00;100406.63;5035188;28;20399;-62
2023/07/12 05:37:17;;;;;;;5.70;1.02;;;;;;;15.25;100.00;100398.81;5028303;28;20032;-59
2023/07/12 05:39:42;;;;;;;6.65;0.93;;;;;;;15.24;100.00;100409.75;5033204;28;20436;-57
2023/07/12 05:42:09;;;;;;;7.22;1.13;;;;;;;15.20;100.00;100427.25;5041120;28;20797;-62
2023/07/12 05:44:34;;;;;;;1.88;0.73;;;;;;;15.32;100.00;100421.97;5039688;28;20408;-55
2023/07/12 05:47:00;;;;;;;8.20;2.33;;;;;;;15.38;100.00;100423.75;5040264;28;20488;-51
2023/07/12 05:49:25;;;;;;;5.32;0.68;;;;;;;15.41;100.00;100423.28;5036371;28;20040;-56
2023/07/12 05:51:51;;;;;;;5.07;0.63;;;;;;;15.36;100.00;100410.63;5027761;28;20084;-64
2023/07/12 05:54:17;;;;;;;15.82;1.88;;;;;;;15.31;100.00;100410.50;5038857;28;20310;-62
2023/07/12 05:56:42;;;;;;;5.97;1.02;;;;;;;15.27;100.00;100407.44;5032895;28;20033;-58
2023/07/12 05:59:09;;;;;;;5.63;0.52;;;;;;;15.15;100.00;100417.22;5038650;28;20525;-59
2023/07/12 06:01:35;;;;;;;4.53;0.68;;;;;;;15.10;100.00;100432.28;5034791;28;20047;-57
2023/07/12 06:04:00;;;;;;;10.13;0.50;;;;;;;15.07;100.00;100427.38;5036278;28;20033;-59
2023/07/12 06:06:25;;;;;;;3.63;0.57;;;;;;;15.05;100.00;100427.63;5027620;28;20029;-61
2023/07/12 06:08:51;;;;;;;5.35;1.35;;;;;;;15.10;100.00;100432.28;5033718;28;20095;-62
2023/07/12 06:11:16;;;;;;;2.80;0.20;;;;;;;15.19;100.00;100430.97;5025968;28;20367;-56
2023/07/12 06:13:41;;;;;;;6.78;0.40;;;;;;;15.19;100.00;100430.97;5031623;28;20029;-62
2023/07/12 06:16:07;;;;;;;5.68;0.52;;;;;;;15.23;100.00;100437.47;5031282;28;20040;-60
2023/07/12 06:18:32;;;;;;;5.45;1.05;;;;;;;15.26;100.00;100431.72;5028105;28;20044;-58
2023/07/12 06:21:00;;;;;;;3.47;0.25;;;;;;;15.25;100.00;100440.75;5032180;28;20520;-59
2023/07/12 06:23:26;;;;;;;3.13;0.50;;;;;;;15.15;100.00;100443.09;5036506;28;20127;-62
2023/07/12 06:25:51;;;;;;;2.15;0.40;;;;;;;15.15;100.00;100438.56;5023885;28;20039;-62
2023/07/12 06:28:17;;;;;;;12.25;1.30;;;;;;;15.20;100.00;100437.91;5027339;28;20029;-50
2023/07/12 06:30:42;;;;;;;7.57;1.35;;;;;;;15.34;100.00;100442.09;5029769;28;20640;-61
2023/07/12 06:33:10;;;;;;;7.07;0.60;;;;;;;15.58;100.00;100450.22;5029126;28;20142;-55
2023/07/12 06:35:35;;;;;;;3.15;0.60;;;;;;;15.63;100.00;100439.69;5030212;28;20382;-53
2023/07/12 06:38:00;;;;;;;6.10;1.45;;;;;;;15.62;100.00;100424.69;5038210;28;20040;-53
2023/07/12 06:40:26;;;;;;;3.78;0.60;;;;;;;15.71;100.00;100431.38;5030167;28;20029;-62
2023/07/12 06:42:51;;;;;;;2.72;1.40;;;;;;;15.73;100.00;100440.00;5034769;28;20107;-55
2023/07/12 06:45:16;;;;;;;1.35;0.75;;;;;;;15.80;100.00;100443.41;5034584;28;20094;-61
2023/07/12 06:47:42;;;;;;;3.63;0.73;;;;;;;15.83;100.00;100420.75;5027600;28;20033;-49
2023/07/12 06:50:08;;;;;;;4.95;0.90;;;;;;;15.83;100.00;100432.25;5031208;28;20045;-56
2023/07/12 06:52:33;;;;;;;6.00;0.47;;;;;;;15.85;100.00;100429.34;5034899;28;20070;-55
2023/07/12 06:54:59;;;;;;;3.58;1.00;;;;;;;15.92;100.00;100435.41;5032692;28;20033;-53
2023/07/12 06:57:24;;;;;;;8.15;1.40;;;;;;;16.01;100.00;100435.94;5030008;28;20074;-60
2023/07/12 06:59:49;;;;;;;2.75;1.05;;;;;;;16.03;100.00;100437.31;5030769;28;20328;-58
2023/07/12 07:02:15;;;;;;;2.78;0.52;;;;;;;16.00;100.00;100439.63;5032899;28;20573;-55
2023/07/12 07:04:40;;;;;;;6.22;1.10;;;;;;;15.99;100.00;100451.38;5033373;28;20036;-54
2023/07/12 07:07:06;;;;;;;5.32;0.73;;;;;;;15.94;100.00;100444.03;5030799;28;20034;-47
2023/07/12 07:09:33;;;;;;;4.43;0.95;;;;;;;16.04;100.00;100446.97;5034469;28;20051;-64
2023/07/12 07:11:59;;;;;;;4.07;0.50;;;;;;;16.11;100.00;100445.03;5031688;28;20033;-58
2023/07/12 07:14:24;;;;;;;5.20;0.57;;;;;;;16.37;100.00;100453.69;5020364;28;20059;-59
2023/07/12 07:16:50;;;;;;;5.95;0.90;;;;;;;16.67;100.00;100445.56;5028783;28;20033;-63
2023/07/12 07:19:16;;;;;;;2.13;0.40;;;;;;;16.74;100.00;100443.59;5027322;28;20123;-61
2023/07/12 07:21:41;;;;;;;2.85;0.20;;;;;;;16.84;100.00;100447.59;5033773;28;20445;-61
2023/07/12 07:24:07;;;;;;;5.78;0.25;;;;;;;16.89;100.00;100445.03;5036093;28;20047;-65
2023/07/12 07:26:32;;;;;;;2.17;1.08;;;;;;;17.17;100.00;100438.97;5042046;28;20040;-53
2023/07/12 07:28:57;;;;;;;4.25;0.60;;;;;;;17.15;100.00;100430.34;5032893;28;20037;-67
2023/07/12 07:31:23;;;;;;;3.80;0.60;;;;;;;17.34;100.00;100439.84;5033812;28;20087;-52
2023/07/12 07:33:48;;;;;;;3.55;0.50;;;;;;;17.42;100.00;100438.66;5030669;28;20208;-58
2023/07/12 07:36:14;;;;;;;2.15;0.75;;;;;;;17.49;100.00;100423.25;5030858;28;20070;-55
2023/07/12 07:38:39;;;;;;;1.40;0.10;;;;;;;17.71;100.00;100414.53;5039016;28;20032;-61
2023/07/12 07:41:09;;;;;;;10.43;1.55;;;;;;;17.85;100.00;100408.69;5036619;28;20064;-69
2023/07/12 07:43:35;;;;;;;1.25;0.43;;;;;;;18.00;100.00;100415.38;5028177;28;20040;-64
2023/07/12 07:46:01;;;;;;;2.08;0.20;;;;;;;17.97;100.00;100413.19;5032733;28;20068;-61
2023/07/12 07:48:26;;;;;;;2.60;0.90;;;;;;;17.85;100.00;100403.31;5023734;28;20025;-57
2023/07/12 07:50:52;;;;;;;5.30;0.20;;;;;;;18.09;100.00;100412.03;5033000;28;20033;-51
2023/07/12 07:53:17;;;;;;;1.00;0.20;;;;;;;18.09;100.00;100405.88;5029405;28;20108;-56
2023/07/12 07:55:44;;;;;;;1.65;0.15;;;;;;;18.15;100.00;100406.75;5034437;28;20400;-49
2023/07/12 07:58:11;;;;;;;1.60;0.43;;;;;;;18.47;100.00;100407.84;5031626;28;20532;-60
2023/07/12 08:00:37;;;;;;;0.82;0.32;;;;;;;18.49;100.00;100404.94;5024857;28;20489;-50
2023/07/12 08:03:04;;;;;;;1.67;0.47;;;;;;;18.62;100.00;100403.78;5025101;28;20034;-61
2023/07/12 08:05:29;;;;;;;3.80;0.85;;;;;;;18.56;100.00;100405.56;5025000;28;20379;-56
2023/07/12 08:07:55;;;;;;;1.08;0.75;;;;;;;18.67;100.00;100403.84;5022001;28;20025;-63
2023/07/12 08:10:20;;;;;;;1.95;0.10;;;;;;;19.08;100.00;100402.56;5025694;28;20096;-49
2023/07/12 08:12:47;;;;;;;2.35;0.95;;;;;;;19.19;100.00;100403.50;5028845;28;20034;-53
2023/07/12 08:15:12;;;;;;;1.58;0.13;;;;;;;19.26;100.00;100401.44;5035529;28;20087;-51
2023/07/12 08:17:38;;;;;;;2.42;0.55;;;;;;;19.02;100.00;100410.78;5029455;28;20025;-53
2023/07/12 08:20:04;;;;;;;1.42;0.52;;;;;;;18.96;100.00;100420.66;5023514;28;20486;-51
2023/07/12 08:22:33;;;;;;;1.90;0.20;;;;;;;18.84;100.00;100423.44;5027300;28;20120;-59
2023/07/12 08:24:58;;;;;;;2.50;0.10;;;;;;;18.69;100.00;100415.13;5031587;28;20106;-52
2023/07/12 08:27:23;;;;;;;2.67;0.88;;;;;;;18.65;100.00;100428.25;5030811;28;20487;-52
2023/07/12 08:29:49;;;;;;;1.58;0.47;;;;;;;18.71;100.00;100427.25;5029625;28;20235;-49
2023/07/12 08:32:14;;;;;;;2.42;0.30;;;;;;;18.60;100.00;100438.91;5028627;28;20025;-59
2023/07/12 08:34:39;;;;;;;1.48;0.55;;;;;;;18.71;100.00;100421.88;5020399;28;20447;-55
2023/07/12 08:37:05;;;;;;;3.05;0.30;;;;;;;18.70;100.00;100430.22;5033226;28;20040;-62
2023/07/12 08:39:30;;;;;;;3.15;0.30;;;;;;;18.74;100.00;100424.09;5030155;28;20524;-58
2023/07/12 08:41:57;;;;;;;2.30;0.73;;;;;;;18.66;100.00;100424.50;5031675;28;20033;-64
2023/07/12 08:44:23;;;;;;;4.68;0.80;;;;;;;18.59;100.00;100431.94;5030458;28;20048;-62
2023/07/12 08:46:55;;;;;;;2.97;0.60;;;;;;;18.58;100.00;100437.53;5027282;28;20025;-64
2023/07/12 08:49:21;;;;;;;1.77;0.17;;;;;;;18.43;100.00;100436.25;5032690;28;20243;-64
2023/07/12 08:51:48;;;;;;;1.98;0.75;;;;;;;18.69;100.00;100434.78;5028391;28;20035;-65
2023/07/12 08:54:25;;;;;;;1.33;0.30;;;;;;;18.88;100.00;100427.28;5027838;28;20029;-63
2023/07/12 08:57:07;;;;;;;5.57;1.15;;;;;;;19.35;100.00;100417.94;5023563;28;20037;-64
2023/07/12 08:59:32;;;;;;;;;;;;;;;19.82;100.00;100407.44;5048528;28;20033;-61
2023/07/12 09:01:59;;;;;;;3.28;0.32;;;;;;;19.91;100.00;100417.78;5030700;28;19974;-59
2023/07/12 09:04:27;;;;;;;2.60;1.48;;;;;;;19.48;100.00;100406.00;5036143;28;20075;-65
2023/07/12 09:07:00;;;;;;;0.80;0.10;;;;;;;19.17;100.00;100411.81;5035888;28;20091;-56
2023/07/12 09:09:27;;;;;;;2.13;0.75;;;;;;;19.17;100.00;100413.69;5026948;28;20036;-55
2023/07/12 09:11:53;;;;;;;2.80;0.88;;;;;;;19.16;100.00;100410.19;5022886;28;20080;-63
2023/07/12 09:14:20;;;;;;;2.20;0.38;;;;;;;19.34;100.00;100410.94;5029068;28;20029;-52
2023/07/12 09:16:49;;;;;;;1.70;0.90;;;;;;;19.61;100.00;100403.72;5039476;28;20033;-56
2023/07/12 09:19:18;;;;;;;2.97;0.85;;;;;;;19.36;100.00;100406.09;5033150;28;20406;-62
2023/07/12 09:21:48;;;;;;;4.00;0.10;;;;;;;19.55;100.00;100409.31;5036471;28;20989;-64
2023/07/12 09:24:19;;;;;;;6.78;0.65;;;;;;;19.54;100.00;100407.66;5032172;28;20040;-50
2023/07/12 09:26:45;;;;;;;1.23;0.60;;;;;;;19.88;100.00;100405.66;5035683;28;20053;-63
2023/07/12 09:29:27;;;;;;;1.58;0.60;;;;;;;20.25;100.00;100411.06;5032409;28;20649;-55
2023/07/12 09:31:59;;;;;;;1.60;1.08;;;;;;;20.29;100.00;100415.94;5039953;28;20021;-53
2023/07/12 09:34:34;;;;;;;2.47;0.10;;;;;;;20.13;100.00;100406.94;5034168;28;20052;-64
2023/07/12 09:37:00;;;;;;;4.47;0.25;;;;;;;20.29;100.00;100410.56;5037477;28;20056;-55
2023/07/12 09:39:26;;;;;;;5.20;0.13;;;;;;;20.24;100.00;100414.03;5033912;28;21443;-64
2023/07/12 09:41:56;;;;;;;1.05;0.63;;;;;;;19.80;100.00;100406.06;5029951;28;20538;-65
2023/07/12 09:44:22;;;;;;;4.10;0.85;;;;;;;19.85;100.00;100416.09;5033380;28;20049;-61
2023/07/12 09:46:53;;;;;;;1.45;0.05;;;;;;;19.85;100.00;100408.00;5026268;28;20510;-58
2023/07/12 09:49:29;;;;;;;2.17;0.22;;;;;;;20.32;100.00;100416.25;5035914;28;20091;-66
2023/07/12 09:52:08;;;;;;;1.60;0.10;;;;;;;20.75;100.00;100403.63;5024989;28;20518;-52
2023/07/12 09:54:58;;;;;;;5.03;0.73;;;;;;;21.09;100.00;100397.88;5031053;28;20040;-54
2023/07/12 09:57:45;;;;;;;0.90;0.10;;;;;;;20.95;100.00;100407.53;5033103;28;20160;-52
2023/07/12 10:00:21;;;;;;;1.00;0.40;;;;;;;20.56;100.00;100405.94;5028578;28;20679;-53
2023/07/12 10:03:02;;;;;;;1.75;0.15;;;;;;;20.57;100.00;100406.75;5033108;28;20049;-62
2023/07/12 10:05:28;;;;;;;2.92;0.32;;;;;;;20.60;100.00;100412.47;5031773;28;20028;-50
2023/07/12 10:08:08;;;;;;;6.13;0.20;;;;;;;20.58;100.00;100387.66;5031812;28;20481;-64
2023/07/12 10:10:52;;;;;;;1.52;0.25;;;;;;;20.88;100.00;100386.19;5030639;28;20037;-56
2023/07/12 10:13:33;;;;;;;4.05;0.32;;;;;;;21.04;100.00;100390.63;5039170;28;20809;-65
2023/07/12 10:16:00;;;;;;;0.50;0.10;;;;;;;20.65;100.00;100382.84;5023580;28;20029;-62
2023/07/12 10:18:32;;;;;;;3.25;0.10;;;;;;;20.96;100.00;100398.38;5033466;28;20041;-61
2023/07/12 10:20:59;;;;;;;1.40;0.00;;;;;;;21.25;100.00;100386.09;5040319;28;20058;-49
2023/07/12 10:23:28;;;;;;;3.97;0.10;;;;;;;21.84;100.00;100382.25;5030457;28;21051;-61
2023/07/12 10:26:00;;;;;;;1.83;0.40;;;;;;;21.82;100.00;100379.00;5026921;28;20037;-64
2023/07/12 10:28:44;;;;;;;2.33;0.10;;;;;;;21.53;100.00;100386.78;5030800;28;20087;-64
2023/07/12 10:31:27;;;;;;;3.10;1.00;;;;;;;21.32;100.00;100380.44;5032928;28;20040;-63
2023/07/12 10:34:01;;;;;;;2.53;0.75;;;;;;;21.07;100.00;100375.78;5032253;28;20024;-65
2023/07/12 10:36:26;;;;;;;0.98;0.00;;;;;;;21.40;100.00;100377.31;5034686;28;20025;-52
2023/07/12 10:38:52;;;;;;;1.13;0.50;;;;;;;21.92;100.00;100373.59;5032693;28;20038;-55
2023/07/12 10:41:31;;;;;;;3.00;0.00;;;;;;;21.84;100.00;100376.84;5031111;28;20042;-53
2023/07/12 10:44:06;;;;;;;1.98;0.28;;;;;;;21.25;100.00;100390.69;5035258;28;20029;-55
2023/07/12 10:46:45;;;;;;;0.75;0.10;;;;;;;20.87;100.00;100381.91;5031867;28;20083;-54
2023/07/12 10:49:16;;;;;;;0.30;0.10;;;;;;;20.82;100.00;100404.22;5033589;28;20033;-54
2023/07/12 10:51:45;;;;;;;1.60;0.50;;;;;;;20.35;100.00;100423.00;5032778;28;20029;-55
2023/07/12 10:54:43;;;;;;;4.03;0.30;;;;;;;18.51;100.00;100449.25;5033354;28;20064;-54
2023/07/12 10:57:18;;;;;;;4.35;0.82;;;;;;;17.38;100.00;100459.75;5032808;28;20072;-58
2023/07/12 10:59:45;;;;;;;2.17;0.10;;;;;;;16.90;100.00;100476.13;5034263;28;20047;-64
2023/07/12 11:02:25;;;;;;;1.30;0.63;;;;;;;16.69;100.00;100480.16;5035473;28;20068;-64
2023/07/12 11:04:51;;;;;;;1.80;0.43;;;;;;;16.67;100.00;100476.88;5038204;28;20029;-62
2023/07/12 11:07:16;;;;;;;0.90;0.50;;;;;;;16.96;100.00;100467.97;5030227;28;20044;-58
2023/07/12 11:09:47;;;;;;;0.75;0.10;;;;;;;17.34;100.00;100479.22;5028728;28;20060;-62
2023/07/12 11:12:13;;;;;;;3.13;0.28;;;;;;;17.54;100.00;100478.84;5031948;28;20500;-61
2023/07/12 11:14:38;;;;;;;0.73;0.05;;;;;;;17.98;100.00;100474.63;5027739;28;20029;-60
2023/07/12 11:17:11;;;;;;;3.10;0.45;;;;;;;18.55;100.00;100470.25;5026404;28;20554;-60
2023/07/12 11:19:39;;;;;;;4.57;0.30;;;;;;;18.74;100.00;100455.50;5037278;28;20383;-58